createdAt,value
2018-11-13T00:02:10.922Z,4.93
2018-11-13T00:04:38.809Z,5.47
2018-11-13T00:07:22.724Z,4.90
2018-11-13T00:09:50.831Z,5.57
2018-11-13T00:12:18.871Z,4.90
2018-11-13T00:14:46.866Z,5.70
2018-11-13T00:17:15.088Z,5.30
2018-11-13T00:19:43.283Z,5.30
2018-11-13T00:22:11.279Z,5.70
2018-11-13T00:24:39.230Z,5.10
2018-11-13T00:27:07.305Z,5.70
2018-11-13T00:29:35.590Z,5.73
2018-11-13T00:32:03.368Z,5.87
2018-11-13T00:34:31.305Z,5.83
2018-11-13T00:36:59.191Z,6.83
2018-11-13T00:39:27.132Z,6.70
2018-11-13T00:41:55.108Z,6.83
2018-11-13T00:44:22.986Z,6.63
2018-11-13T00:46:50.946Z,6.87
2018-11-13T00:49:18.819Z,6.90
2018-11-13T00:51:46.760Z,7.27
2018-11-13T00:54:14.644Z,6.70
2018-11-13T00:56:42.551Z,7.37
2018-11-13T00:59:10.458Z,5.60
2018-11-13T01:01:38.367Z,5.70
2018-11-13T01:04:06.424Z,5.47
2018-11-13T01:06:34.382Z,5.80
2018-11-13T01:09:02.364Z,6.50
2018-11-13T01:11:30.259Z,5.60
2018-11-13T01:13:58.167Z,6.00
2018-11-13T01:16:26.169Z,6.07
2018-11-13T01:18:54.066Z,5.93
2018-11-13T01:21:21.967Z,5.73
2018-11-13T01:24:06.173Z,5.47
2018-11-13T01:26:34.215Z,5.83
2018-11-13T01:29:02.090Z,5.90
2018-11-13T01:31:29.971Z,5.37
2018-11-13T01:33:57.929Z,5.83
2018-11-13T01:36:25.798Z,5.67
2018-11-13T01:38:53.771Z,5.90
2018-11-13T01:41:21.658Z,6.50
2018-11-13T01:43:49.555Z,7.07
2018-11-13T01:46:17.446Z,6.60
2018-11-13T01:48:45.313Z,6.70
2018-11-13T01:51:13.329Z,6.57
2018-11-13T01:53:41.233Z,7.37
2018-11-13T01:56:09.118Z,7.07
2018-11-13T01:58:37.090Z,6.73
2018-11-13T02:01:04.967Z,6.30
2018-11-13T02:03:32.826Z,6.97
2018-11-13T02:06:00.795Z,6.90
2018-11-13T02:08:28.751Z,6.90
2018-11-13T02:10:56.634Z,7.30
2018-11-13T02:13:24.591Z,7.47
2018-11-13T02:15:52.454Z,7.20
2018-11-13T02:18:20.336Z,7.20
2018-11-13T02:20:48.311Z,7.07
2018-11-13T02:23:16.351Z,7.00
2018-11-13T02:25:44.239Z,6.13
2018-11-13T02:28:12.136Z,7.13
2018-11-13T02:30:40.000Z,8.13
2018-11-13T02:33:07.889Z,7.43
2018-11-13T02:35:35.838Z,6.40
2018-11-13T02:38:03.787Z,5.73
2018-11-13T02:40:31.722Z,5.60
2018-11-13T02:42:59.715Z,6.40
2018-11-13T02:45:27.619Z,6.73
2018-11-13T02:47:55.476Z,6.27
2018-11-13T02:50:23.402Z,6.93
2018-11-13T02:52:51.287Z,7.67
2018-11-13T02:55:19.164Z,8.17
2018-11-13T02:57:47.274Z,7.83
2018-11-13T03:00:16.663Z,8.10
2018-11-13T03:02:44.580Z,7.83
2018-11-13T03:05:13.797Z,7.93
2018-11-13T03:07:41.867Z,7.57
2018-11-13T03:10:11.087Z,7.40
2018-11-13T03:12:39.071Z,7.63
2018-11-13T03:15:07.707Z,6.83
2018-11-13T03:17:35.664Z,7.50
2018-11-13T03:20:04.096Z,6.87
2018-11-13T03:22:32.045Z,6.90
2018-11-13T03:24:59.907Z,6.90
2018-11-13T03:27:27.822Z,5.50
2018-11-13T03:29:55.682Z,6.40
2018-11-13T03:32:23.584Z,5.63
2018-11-13T03:34:53.619Z,4.97
2018-11-13T03:37:21.591Z,4.23
2018-11-13T03:39:49.567Z,3.80
2018-11-13T03:42:17.419Z,3.40
2018-11-13T03:44:45.412Z,3.50
2018-11-13T03:47:13.347Z,2.70
2018-11-13T03:49:41.246Z,3.00
2018-11-13T03:52:09.122Z,2.70
2018-11-13T03:54:37.037Z,1.90
2018-11-13T03:57:04.906Z,1.57
2018-11-13T03:59:32.781Z,1.80
2018-11-13T04:02:00.687Z,1.40
2018-11-13T04:04:28.547Z,1.57
2018-11-13T04:06:56.501Z,1.60
2018-11-13T04:09:24.472Z,1.53
2018-11-13T04:11:52.362Z,1.37
2018-11-13T04:14:20.298Z,1.20
2018-11-13T04:16:48.195Z,1.23
2018-11-13T04:19:16.246Z,1.10
2018-11-13T04:21:48.452Z,1.10
2018-11-13T04:24:16.358Z,1.00
2018-11-13T04:26:44.237Z,0.90
2018-11-13T04:29:12.137Z,1.10
2018-11-13T04:31:40.024Z,1.63
2018-11-13T04:34:07.970Z,1.27
2018-11-13T04:36:35.837Z,1.40
2018-11-13T04:39:03.887Z,1.13
2018-11-13T04:41:31.815Z,1.50
2018-11-13T04:43:59.772Z,1.70
2018-11-13T04:46:27.675Z,1.60
2018-11-13T04:48:55.659Z,1.67
2018-11-13T04:51:23.571Z,1.87
2018-11-13T04:53:51.418Z,1.87
2018-11-13T04:56:19.290Z,1.83
2018-11-13T04:58:47.271Z,1.80
2018-11-13T05:01:15.183Z,1.60
2018-11-13T05:03:43.215Z,1.73
2018-11-13T05:06:11.133Z,2.00
2018-11-13T05:08:39.124Z,1.70
2018-11-13T05:11:06.996Z,2.17
2018-11-13T05:13:34.947Z,2.50
2018-11-13T05:16:02.827Z,1.97
2018-11-13T05:18:30.767Z,2.60
2018-11-13T05:20:58.654Z,2.37
2018-11-13T05:23:26.523Z,2.37
2018-11-13T05:25:54.403Z,1.90
2018-11-13T05:28:22.273Z,2.47
2018-11-13T05:30:50.145Z,2.50
2018-11-13T05:33:18.124Z,2.20
2018-11-13T05:35:46.036Z,2.50
2018-11-13T05:38:13.946Z,2.80
2018-11-13T05:40:41.932Z,2.33
2018-11-13T05:43:09.839Z,2.67
2018-11-13T05:45:37.735Z,2.13
2018-11-13T05:48:05.631Z,2.70
2018-11-13T05:50:33.543Z,2.80
2018-11-13T05:53:01.444Z,2.40
2018-11-13T05:55:29.321Z,2.50
2018-11-13T05:57:57.207Z,2.50
2018-11-13T06:00:30.408Z,2.73
2018-11-13T06:02:58.535Z,2.50
2018-11-13T06:05:26.421Z,2.63
2018-11-13T06:07:54.295Z,4.13
2018-11-13T06:10:22.251Z,3.17
2018-11-13T06:12:50.126Z,4.07
2018-11-13T06:15:18.167Z,4.20
2018-11-13T06:17:46.069Z,4.87
2018-11-13T06:20:14.838Z,4.43
2018-11-13T06:22:42.789Z,4.90
2018-11-13T06:25:11.980Z,5.40
2018-11-13T06:27:41.077Z,5.50
2018-11-13T06:30:10.074Z,5.53
2018-11-13T06:32:38.067Z,5.93
2018-11-13T06:35:05.959Z,9.67
2018-11-13T06:37:33.834Z,6.50
2018-11-13T06:40:01.756Z,6.00
2018-11-13T06:42:29.738Z,6.87
2018-11-13T06:44:57.611Z,6.50
2018-11-13T06:47:25.475Z,5.87
2018-11-13T06:49:53.351Z,5.93
2018-11-13T06:52:21.240Z,5.70
2018-11-13T06:55:02.890Z,5.90
2018-11-13T06:57:31.472Z,5.43
2018-11-13T06:59:59.756Z,5.20
2018-11-13T07:02:27.635Z,5.30
2018-11-13T07:04:55.571Z,5.20
2018-11-13T07:07:23.435Z,5.70
2018-11-13T07:09:51.319Z,4.70
2018-11-13T07:12:19.336Z,4.93
2018-11-13T07:14:47.261Z,4.93
2018-11-13T07:17:15.243Z,5.00
2018-11-13T07:19:43.271Z,5.40
2018-11-13T07:22:11.175Z,5.03
2018-11-13T07:27:26.880Z,4.73
2018-11-13T07:29:54.834Z,4.73
2018-11-13T07:32:22.711Z,4.47
2018-11-13T07:34:50.608Z,4.47
2018-11-13T07:37:18.625Z,4.20
2018-11-13T07:39:46.631Z,3.97
2018-11-13T07:42:14.663Z,4.53
2018-11-13T07:44:42.651Z,3.70
2018-11-13T07:47:10.676Z,4.00
2018-11-13T07:49:38.535Z,3.60
2018-11-13T07:52:06.871Z,2.97
2018-11-13T07:54:36.870Z,3.57
2018-11-13T07:57:05.746Z,2.90
2018-11-13T07:59:33.688Z,2.40
2018-11-13T08:02:01.920Z,3.13
2018-11-13T08:04:29.998Z,3.17
2018-11-13T08:06:57.936Z,2.70
2018-11-13T08:09:25.835Z,3.60
2018-11-13T08:11:53.695Z,3.30
2018-11-13T08:14:21.606Z,2.70
2018-11-13T08:16:49.544Z,2.87
2018-11-13T08:19:17.515Z,2.50
2018-11-13T08:21:45.575Z,2.70
2018-11-13T08:24:13.540Z,2.40
2018-11-13T08:26:41.512Z,2.73
2018-11-13T08:29:09.400Z,2.40
2018-11-13T08:31:37.260Z,2.27
2018-11-13T08:34:05.306Z,2.30
2018-11-13T08:36:33.184Z,1.97
2018-11-13T08:39:01.112Z,1.87
2018-11-13T08:41:28.994Z,1.87
2018-11-13T08:43:57.747Z,1.70
2018-11-13T08:46:25.604Z,2.03
2018-11-13T08:48:55.153Z,1.73
2018-11-13T08:51:23.159Z,1.73
2018-11-13T08:53:51.037Z,1.10
2018-11-13T08:56:18.915Z,1.40
2018-11-13T08:58:46.860Z,1.23
2018-11-13T09:01:14.695Z,1.30
2018-11-13T09:03:42.583Z,1.30
2018-11-13T09:06:10.477Z,1.10
2018-11-13T09:08:38.401Z,1.50
2018-11-13T09:11:06.368Z,1.27
2018-11-13T09:13:34.247Z,1.50
2018-11-13T09:16:02.513Z,1.27
2018-11-13T09:18:30.376Z,1.50
2018-11-13T09:20:58.275Z,1.40
2018-11-13T09:23:26.154Z,1.60
2018-11-13T09:25:54.035Z,1.70
2018-11-13T09:28:21.963Z,1.70
2018-11-13T09:30:50.016Z,1.50
2018-11-13T09:33:17.737Z,1.60
2018-11-13T09:35:45.640Z,1.70
2018-11-13T09:38:13.561Z,1.10
2018-11-13T09:40:41.435Z,0.90
2018-11-13T09:43:09.315Z,0.63
2018-11-13T09:45:37.204Z,0.47
2018-11-13T09:48:05.133Z,0.80
2018-11-13T09:50:33.074Z,0.43
2018-11-13T09:53:00.889Z,0.60
2018-11-13T09:55:28.781Z,0.60
2018-11-13T09:57:56.644Z,0.30
2018-11-13T10:00:25.649Z,0.50
2018-11-13T10:02:55.589Z,0.70
2018-11-13T10:05:23.121Z,0.50
2018-11-13T10:07:51.513Z,0.60
2018-11-13T10:10:19.432Z,0.63
2018-11-13T10:12:47.554Z,0.70
2018-11-13T10:15:16.908Z,0.83
2018-11-13T10:17:44.974Z,0.70
2018-11-13T10:20:13.892Z,0.73
2018-11-13T10:22:42.870Z,0.40
2018-11-13T10:25:11.097Z,0.60
2018-11-13T10:27:39.399Z,0.60
2018-11-13T10:30:08.192Z,0.37
2018-11-13T10:32:36.095Z,0.33
2018-11-13T10:35:04.084Z,0.73
2018-11-13T10:37:32.008Z,0.50
2018-11-13T10:39:59.903Z,0.43
2018-11-13T10:42:27.715Z,0.30
2018-11-13T10:44:55.601Z,0.60
2018-11-13T10:47:23.502Z,0.57
2018-11-13T10:49:51.396Z,0.60
2018-11-13T10:52:19.298Z,0.47
2018-11-13T10:54:47.173Z,0.80
2018-11-13T10:57:15.043Z,0.50
2018-11-13T10:59:42.999Z,0.40
2018-11-13T11:02:16.358Z,0.70
2018-11-13T11:04:47.620Z,0.63
2018-11-13T11:07:15.510Z,0.50
2018-11-13T11:09:43.381Z,0.50
2018-11-13T11:12:11.344Z,0.60
2018-11-13T11:14:39.251Z,0.40
2018-11-13T11:17:07.511Z,0.53
2018-11-13T11:19:35.485Z,0.57
2018-11-13T11:22:03.324Z,0.40
2018-11-13T11:24:31.218Z,0.60
2018-11-13T11:26:59.123Z,0.50
2018-11-13T11:29:27.055Z,0.40
2018-11-13T11:31:54.944Z,0.30
2018-11-13T11:34:22.821Z,0.30
2018-11-13T11:36:50.713Z,0.20
2018-11-13T11:39:18.689Z,0.40
2018-11-13T11:41:46.554Z,0.50
2018-11-13T11:44:14.444Z,0.40
2018-11-13T11:46:42.315Z,0.40
2018-11-13T11:49:10.183Z,0.40
2018-11-13T11:51:42.088Z,0.47
2018-11-13T11:54:09.925Z,0.40
2018-11-13T11:56:37.815Z,0.30
2018-11-13T11:59:05.812Z,0.80
2018-11-13T12:01:33.711Z,0.40
2018-11-13T12:04:01.655Z,0.30
2018-11-13T12:06:29.531Z,0.73
2018-11-13T12:08:57.432Z,0.70
2018-11-13T12:11:25.335Z,0.50
2018-11-13T12:13:53.259Z,0.60
2018-11-13T12:16:21.131Z,0.60
2018-11-13T12:18:49.068Z,0.50
2018-11-13T12:21:16.880Z,0.60
2018-11-13T12:23:44.770Z,0.70
2018-11-13T12:26:12.679Z,0.60
2018-11-13T12:28:40.612Z,0.50
2018-11-13T12:31:08.504Z,0.70
2018-11-13T12:33:36.390Z,0.60
2018-11-13T12:36:04.347Z,0.40
2018-11-13T12:38:32.283Z,0.50
2018-11-13T12:41:00.245Z,1.40
2018-11-13T12:43:28.047Z,0.70
2018-11-13T12:45:55.935Z,0.70
2018-11-13T12:48:23.816Z,0.83
2018-11-13T12:50:57.567Z,0.40
2018-11-13T12:53:25.443Z,0.60
2018-11-13T12:55:53.454Z,0.70
2018-11-13T12:58:21.251Z,0.80
2018-11-13T13:00:49.162Z,0.70
2018-11-13T13:03:17.063Z,0.50
2018-11-13T13:05:44.946Z,0.60
2018-11-13T13:08:12.844Z,0.40
2018-11-13T13:10:40.725Z,0.83
2018-11-13T13:13:08.586Z,0.50
2018-11-13T13:15:36.518Z,0.73
2018-11-13T13:18:04.464Z,0.70
2018-11-13T13:20:32.406Z,0.80
2018-11-13T13:23:00.280Z,0.90
2018-11-13T13:25:28.149Z,0.70
2018-11-13T13:27:56.029Z,0.90
2018-11-13T13:30:25.079Z,1.40
2018-11-13T13:32:52.992Z,1.10
2018-11-13T13:35:54.528Z,1.03
2018-11-13T13:38:22.386Z,0.90
2018-11-13T13:40:52.375Z,0.63
2018-11-13T13:43:20.788Z,0.90
2018-11-13T13:45:49.144Z,0.80
2018-11-13T13:48:17.351Z,0.70
2018-11-13T13:50:45.246Z,0.70
2018-11-13T13:53:14.023Z,0.60
2018-11-13T13:55:42.130Z,0.80
2018-11-13T13:58:10.391Z,1.00
2018-11-13T14:00:38.398Z,1.00
2018-11-13T14:03:06.737Z,0.90
2018-11-13T14:05:34.714Z,0.80
2018-11-13T14:08:02.578Z,1.40
2018-11-13T14:10:30.473Z,0.90
2018-11-13T14:12:58.697Z,1.47
2018-11-13T14:15:26.635Z,0.73
2018-11-13T14:17:54.464Z,0.83
2018-11-13T14:20:22.351Z,1.67
2018-11-13T14:22:50.322Z,0.87
2018-11-13T14:25:18.203Z,0.80
2018-11-13T14:27:46.587Z,1.00
2018-11-13T14:30:16.652Z,0.70
2018-11-13T14:32:45.447Z,0.87
2018-11-13T14:35:13.494Z,0.97
2018-11-13T14:37:41.374Z,1.13
2018-11-13T14:40:11.437Z,0.70
2018-11-13T14:42:39.319Z,0.70
2018-11-13T14:45:07.520Z,0.90
2018-11-13T14:47:35.400Z,0.87
2018-11-13T14:50:03.929Z,1.40
2018-11-13T14:52:31.842Z,0.80
2018-11-13T14:55:01.050Z,0.80
2018-11-13T14:57:28.988Z,0.90
2018-11-13T14:59:56.874Z,1.13
2018-11-13T15:02:24.749Z,1.00
2018-11-13T15:04:52.634Z,0.97
2018-11-13T15:07:20.615Z,0.90
2018-11-13T15:09:48.495Z,1.10
2018-11-13T15:12:16.376Z,1.00
2018-11-13T15:14:44.275Z,0.97
2018-11-13T15:17:12.167Z,0.93
2018-11-13T15:19:40.046Z,0.83
2018-11-13T15:22:08.010Z,1.37
2018-11-13T15:24:35.916Z,1.20
2018-11-13T15:27:03.747Z,1.37
2018-11-13T15:29:31.608Z,1.03
2018-11-13T15:31:59.507Z,1.00
2018-11-13T15:34:27.407Z,1.40
2018-11-13T15:36:55.283Z,1.13
2018-11-13T15:39:23.182Z,1.10
2018-11-13T15:41:51.043Z,1.10
2018-11-13T15:44:18.995Z,1.20
2018-11-13T15:46:46.893Z,1.30
2018-11-13T15:49:14.773Z,1.43
2018-11-13T15:51:44.842Z,1.50
2018-11-13T15:54:12.784Z,1.63
2018-11-13T15:56:40.664Z,1.37
2018-11-13T15:59:08.575Z,1.00
2018-11-13T16:01:36.476Z,1.40
2018-11-13T16:04:04.492Z,1.47
2018-11-13T16:06:32.531Z,1.10
2018-11-13T16:09:00.292Z,0.87
2018-11-13T16:11:28.185Z,1.30
2018-11-13T16:13:56.059Z,1.43
2018-11-13T16:16:30.435Z,1.23
2018-11-13T16:18:58.355Z,1.27
2018-11-13T16:21:26.309Z,0.80
2018-11-13T16:23:54.148Z,1.40
2018-11-13T16:26:23.355Z,0.90
2018-11-13T16:28:51.232Z,1.10
2018-11-13T16:31:19.174Z,1.43
2018-11-13T16:33:47.028Z,1.30
2018-11-13T16:36:14.964Z,1.43
2018-11-13T16:38:42.833Z,1.17
2018-11-13T16:41:10.769Z,1.40
2018-11-13T16:43:38.630Z,1.77
2018-11-13T16:46:06.512Z,1.20
2018-11-13T16:48:34.532Z,1.53
2018-11-13T16:51:02.434Z,1.70
2018-11-13T16:53:33.678Z,1.60
2018-11-13T16:56:02.301Z,1.57
2018-11-13T16:58:30.204Z,1.70
2018-11-13T17:00:58.931Z,2.33
2018-11-13T17:03:26.878Z,2.03
2018-11-13T17:05:54.724Z,1.47
2018-11-13T17:08:22.581Z,1.37
2018-11-13T17:10:50.467Z,1.60
2018-11-13T17:13:18.368Z,1.70
2018-11-13T17:15:46.247Z,1.50
2018-11-13T17:18:14.174Z,1.67
2018-11-13T17:20:42.064Z,1.90
2018-11-13T17:23:09.941Z,1.13
2018-11-13T17:25:38.707Z,1.80
2018-11-13T17:28:06.901Z,1.70
2018-11-13T17:30:35.336Z,1.23
2018-11-13T17:33:03.867Z,1.77
2018-11-13T17:35:32.227Z,1.70
2018-11-13T17:38:00.896Z,1.60
2018-11-13T17:40:30.130Z,1.70
2018-11-13T17:42:59.306Z,1.60
2018-11-13T17:45:31.360Z,1.67
2018-11-13T17:47:59.261Z,1.93
2018-11-13T17:50:29.610Z,1.70
2018-11-13T17:52:57.670Z,1.80
2018-11-13T17:55:25.761Z,1.90
2018-11-13T17:57:56.606Z,2.00
2018-11-13T18:00:26.247Z,2.00
2018-11-13T18:02:55.523Z,1.90
2018-11-13T18:05:24.352Z,1.73
2018-11-13T18:07:52.750Z,2.03
2018-11-13T18:10:21.060Z,1.70
2018-11-13T18:12:48.954Z,2.77
2018-11-13T18:15:19.384Z,1.80
2018-11-13T18:17:47.542Z,1.27
2018-11-13T18:20:16.772Z,1.47
2018-11-13T18:22:45.103Z,1.50
2018-11-13T18:25:13.027Z,2.20
2018-11-13T18:27:42.497Z,1.93
2018-11-13T18:30:12.583Z,2.30
2018-11-13T18:32:40.883Z,1.87
2018-11-13T18:35:09.420Z,1.60
2018-11-13T18:37:37.317Z,1.80
2018-11-13T18:40:06.736Z,1.40
2018-11-13T18:42:34.684Z,1.77
2018-11-13T18:45:02.688Z,2.00
2018-11-13T18:47:30.485Z,2.07
2018-11-13T18:49:58.452Z,2.60
2018-11-13T18:52:26.263Z,4.03
2018-11-13T18:54:54.165Z,4.90
2018-11-13T18:57:22.095Z,3.37
2018-11-13T18:59:50.022Z,2.50
2018-11-13T19:02:17.912Z,2.50
2018-11-13T19:04:46.136Z,2.53
2018-11-13T19:07:14.068Z,2.83
2018-11-13T19:09:42.008Z,2.23
2018-11-13T19:12:09.992Z,4.70
2018-11-13T19:14:37.838Z,2.60
2018-11-13T19:17:05.782Z,2.33
2018-11-13T19:19:33.688Z,2.10
2018-11-13T19:22:01.614Z,2.33
2018-11-13T19:24:29.499Z,2.60
2018-11-13T19:29:43.533Z,2.60
2018-11-13T19:32:11.363Z,3.07
2018-11-13T19:34:39.243Z,2.50
2018-11-13T19:37:07.200Z,3.03
2018-11-13T19:39:35.126Z,3.00
2018-11-13T19:42:03.022Z,3.10
2018-11-13T19:44:30.927Z,4.10
2018-11-13T19:46:58.827Z,2.87
2018-11-13T19:49:26.739Z,3.03
2018-11-13T19:51:54.640Z,3.23
2018-11-13T19:54:22.520Z,3.70
2018-11-13T19:56:50.419Z,3.10
2018-11-13T19:59:18.319Z,2.80
2018-11-13T20:01:46.243Z,2.90
2018-11-13T20:04:14.317Z,3.33
2018-11-13T20:06:42.131Z,3.10
2018-11-13T20:09:10.056Z,3.77
2018-11-13T20:11:37.967Z,3.60
2018-11-13T20:14:05.900Z,3.00
2018-11-13T20:16:33.924Z,3.20
2018-11-13T20:19:01.858Z,3.30
2018-11-13T20:21:29.757Z,2.67
2018-11-13T20:23:57.653Z,2.90
2018-11-13T20:26:25.531Z,3.10
2018-11-13T20:28:53.450Z,2.90
2018-11-13T20:31:21.425Z,2.80
2018-11-13T20:33:49.284Z,3.50
2018-11-13T20:36:17.184Z,3.40
2018-11-13T20:38:45.072Z,6.53
2018-11-13T20:41:13.012Z,12.57
2018-11-13T20:43:40.929Z,5.77
2018-11-13T20:46:08.820Z,6.77
2018-11-13T20:48:36.735Z,3.60
2018-11-13T20:51:04.678Z,3.40
2018-11-13T20:53:32.591Z,3.17
2018-11-13T20:56:00.475Z,3.03
2018-11-13T20:58:28.424Z,3.30
2018-11-13T21:00:56.303Z,3.43
2018-11-13T21:03:24.187Z,5.23
2018-11-13T21:05:52.063Z,3.33
2018-11-13T21:08:19.955Z,2.87
2018-11-13T21:10:47.951Z,2.77
2018-11-13T21:13:15.764Z,3.50
2018-11-13T21:15:43.650Z,4.83
2018-11-13T21:18:11.549Z,3.17
2018-11-13T21:20:39.445Z,3.40
2018-11-13T21:23:07.368Z,4.37
2018-11-13T21:25:35.227Z,3.00
2018-11-13T21:28:03.159Z,3.40
2018-11-13T21:30:31.128Z,3.43
2018-11-13T21:32:58.954Z,3.60
2018-11-13T21:35:26.888Z,3.50
2018-11-13T21:37:55.860Z,3.13
2018-11-13T21:40:24.873Z,3.10
2018-11-13T21:42:53.359Z,3.23
2018-11-13T21:45:22.114Z,3.30
2018-11-13T21:47:50.016Z,3.40
2018-11-13T21:50:19.246Z,2.97
2018-11-13T21:52:47.136Z,4.03
2018-11-13T21:55:16.032Z,3.23
2018-11-13T21:57:43.963Z,3.37
2018-11-13T22:00:12.983Z,3.63
2018-11-13T22:02:49.222Z,3.60
2018-11-13T22:05:17.137Z,3.53
2018-11-13T22:07:45.222Z,4.57
2018-11-13T22:10:13.135Z,3.37
2018-11-13T22:12:41.116Z,3.10
2018-11-13T22:15:10.940Z,3.17
2018-11-13T22:17:38.410Z,3.97
2018-11-13T22:20:06.794Z,3.23
2018-11-13T22:22:35.077Z,2.93
2018-11-13T22:25:02.688Z,3.67
2018-11-13T22:27:30.700Z,4.00
2018-11-13T22:29:58.515Z,4.50
2018-11-13T22:32:26.403Z,4.83
2018-11-13T22:34:54.368Z,3.93
2018-11-13T22:37:22.578Z,3.90
2018-11-13T22:39:50.480Z,3.97
2018-11-13T22:42:18.376Z,4.10
2018-11-13T22:44:46.274Z,3.77
2018-11-13T22:47:14.188Z,4.03
2018-11-13T22:49:42.087Z,4.00
2018-11-13T22:52:10.008Z,3.90
2018-11-13T22:54:37.952Z,3.80
2018-11-13T22:57:05.849Z,3.77
2018-11-13T22:59:33.768Z,4.10
2018-11-13T23:02:01.687Z,4.30
2018-11-13T23:04:29.648Z,3.73
2018-11-13T23:06:57.550Z,3.83
2018-11-13T23:09:25.454Z,3.67
2018-11-13T23:11:53.392Z,3.60
2018-11-13T23:14:21.242Z,3.50
2018-11-13T23:16:49.137Z,3.97
2018-11-13T23:19:17.031Z,4.63
2018-11-13T23:21:44.960Z,2.90
2018-11-13T23:24:12.855Z,3.10
2018-11-13T23:26:41.209Z,3.97
2018-11-13T23:29:09.677Z,4.60
2018-11-13T23:31:37.547Z,4.40
2018-11-13T23:34:05.569Z,5.27
2018-11-13T23:36:33.460Z,4.70
2018-11-13T23:39:01.343Z,3.70
2018-11-13T23:41:29.225Z,3.87
2018-11-13T23:43:58.455Z,3.60
2018-11-13T23:46:26.320Z,3.33
2018-11-13T23:48:54.214Z,3.93
2018-11-13T23:51:23.981Z,3.90
2018-11-13T23:53:52.025Z,3.23
2018-11-13T23:56:19.868Z,3.40
2018-11-13T23:58:47.744Z,3.13
